createdAt,value
2019-05-23T00:00:00.494Z,102067.58
2019-05-23T00:02:42.784Z,102063.30
2019-05-23T00:05:31.217Z,102058.80
2019-05-23T00:08:02.151Z,102059.82
2019-05-23T00:10:33.006Z,102056.01
2019-05-23T00:13:03.391Z,102056.56
2019-05-23T00:15:35.433Z,102061.03
2019-05-23T00:18:05.834Z,102048.77
2019-05-23T00:20:35.016Z,102052.15
2019-05-23T00:23:04.821Z,102047.37
2019-05-23T00:25:33.640Z,102047.66
2019-05-23T00:28:03.152Z,102046.78
2019-05-23T00:30:46.748Z,102045.59
2019-05-23T00:33:18.383Z,102042.69
2019-05-23T00:35:47.352Z,102039.36
2019-05-23T00:38:16.407Z,102041.58
2019-05-23T00:40:45.941Z,102040.56
2019-05-23T00:43:14.411Z,102036.78
2019-05-23T00:45:43.443Z,102030.34
2019-05-23T00:48:13.295Z,102035.91
2019-05-23T00:50:44.074Z,102030.61
2019-05-23T00:53:12.051Z,102033.20
2019-05-23T00:55:40.330Z,102030.31
2019-05-23T00:58:11.841Z,102028.22
2019-05-23T01:00:42.875Z,102027.38
2019-05-23T01:03:12.711Z,102025.02
2019-05-23T01:05:41.173Z,102032.99
2019-05-23T01:08:11.068Z,102029.84
2019-05-23T01:10:40.260Z,102030.72
2019-05-23T01:13:09.941Z,102023.37
2019-05-23T01:15:41.055Z,102027.59
2019-05-23T01:18:10.404Z,102028.48
2019-05-23T01:20:55.088Z,102029.84
2019-05-23T01:23:23.646Z,102028.31
2019-05-23T01:25:53.311Z,102026.11
2019-05-23T01:28:22.424Z,102024.39
2019-05-23T01:30:53.183Z,102024.50
2019-05-23T01:33:23.039Z,102025.87
2019-05-23T01:35:52.658Z,102026.28
2019-05-23T01:38:22.040Z,102028.84
2019-05-23T01:40:50.747Z,102027.23
2019-05-23T01:43:19.325Z,102026.77
2019-05-23T01:45:47.589Z,102024.20
2019-05-23T01:48:15.568Z,102032.25
2019-05-23T01:50:43.933Z,102015.45
2019-05-23T01:53:11.828Z,102015.56
2019-05-23T01:55:40.865Z,102016.63
2019-05-23T01:58:09.208Z,102011.72
2019-05-23T02:00:38.225Z,102013.19
2019-05-23T02:03:06.793Z,102011.47
2019-05-23T02:05:34.682Z,102004.58
2019-05-23T02:08:02.777Z,102007.25
2019-05-23T02:10:31.123Z,102010.69
2019-05-23T02:12:59.760Z,102009.27
2019-05-23T02:15:29.350Z,102004.80
2019-05-23T02:17:57.513Z,101999.37
2019-05-23T02:20:26.771Z,102010.52
2019-05-23T02:22:56.202Z,102001.03
2019-05-23T02:25:24.731Z,101999.31
2019-05-23T02:27:53.757Z,101996.75
2019-05-23T02:30:34.206Z,101997.59
2019-05-23T02:32:52.618Z,101992.11
2019-05-23T02:35:22.050Z,101996.75
2019-05-23T02:38:14.243Z,101998.13
2019-05-23T02:41:17.634Z,101993.37
2019-05-23T02:43:50.303Z,101991.70
2019-05-23T02:46:34.344Z,101991.97
2019-05-23T02:49:03.759Z,101987.58
2019-05-23T02:51:36.563Z,101987.48
2019-05-23T02:54:09.208Z,101987.58
2019-05-23T02:56:44.153Z,101984.14
2019-05-23T02:59:41.493Z,101995.48
2019-05-23T03:02:54.365Z,101980.22
2019-05-23T03:05:29.500Z,101986.58
2019-05-23T03:08:01.279Z,101979.90
2019-05-23T03:10:54.442Z,101972.64
2019-05-23T03:13:28.075Z,101978.97
2019-05-23T03:15:57.791Z,101977.66
2019-05-23T03:18:34.978Z,101975.56
2019-05-23T03:21:05.381Z,101976.67
2019-05-23T03:23:35.017Z,101969.13
2019-05-23T03:27:18.079Z,101968.72
2019-05-23T03:29:46.910Z,101970.17
2019-05-23T03:32:39.795Z,101960.92
2019-05-23T03:35:30.817Z,101962.91
2019-05-23T03:38:02.229Z,101962.79
2019-05-23T03:40:31.329Z,101959.28
2019-05-23T03:43:00.604Z,101953.09
2019-05-23T03:45:30.395Z,101953.98
2019-05-23T03:47:59.649Z,101953.04
2019-05-23T03:50:27.808Z,101950.80
2019-05-23T03:52:56.180Z,101946.88
2019-05-23T03:55:25.153Z,101946.09
2019-05-23T03:57:55.589Z,101944.19
2019-05-23T04:00:26.484Z,101937.63
2019-05-23T04:02:54.885Z,101937.28
2019-05-23T04:05:23.511Z,101935.63
2019-05-23T04:07:51.709Z,101934.59
2019-05-23T04:10:19.753Z,101939.53
2019-05-23T04:12:49.591Z,101941.63
2019-05-23T04:15:17.866Z,101940.73
2019-05-23T04:17:47.816Z,101940.27
2019-05-23T04:20:16.543Z,101940.08
2019-05-23T04:22:45.068Z,101937.95
2019-05-23T04:25:13.301Z,101937.86
2019-05-23T04:27:41.108Z,101936.91
2019-05-23T04:30:10.593Z,101937.23
2019-05-23T04:32:39.532Z,101934.42
2019-05-23T04:35:07.802Z,101932.59
2019-05-23T04:37:37.038Z,101929.06
2019-05-23T04:40:06.076Z,101932.80
2019-05-23T04:42:34.016Z,101931.78
2019-05-23T04:45:01.985Z,101926.72
2019-05-23T04:47:30.279Z,101929.69
2019-05-23T04:49:58.551Z,101928.67
2019-05-23T04:52:27.295Z,101923.69
2019-05-23T04:54:55.336Z,101926.02
2019-05-23T04:57:23.910Z,101933.72
2019-05-23T04:59:51.773Z,101934.07
2019-05-23T05:02:26.028Z,101938.31
2019-05-23T05:04:50.696Z,101930.81
2019-05-23T05:07:18.576Z,101934.95
2019-05-23T05:09:48.247Z,101938.71
2019-05-23T05:12:17.350Z,101942.30
2019-05-23T05:14:45.529Z,101942.15
2019-05-23T05:17:13.931Z,101945.92
2019-05-23T05:19:41.964Z,101942.69
2019-05-23T05:22:10.036Z,101946.34
2019-05-23T05:24:47.417Z,101952.55
2019-05-23T05:27:15.409Z,101951.57
2019-05-23T05:29:43.367Z,101948.88
2019-05-23T05:32:13.034Z,101949.92
2019-05-23T05:34:41.024Z,101954.96
2019-05-23T05:37:08.867Z,101959.77
2019-05-23T05:39:36.620Z,101960.28
2019-05-23T05:42:07.088Z,101961.89
2019-05-23T05:44:35.278Z,101952.48
2019-05-23T05:47:03.252Z,101948.67
2019-05-23T05:49:31.896Z,101949.88
2019-05-23T05:51:59.728Z,101952.55
2019-05-23T05:54:27.530Z,101949.94
2019-05-23T05:56:55.557Z,101948.77
2019-05-23T05:59:23.307Z,101952.33
2019-05-23T06:01:52.741Z,101953.78
2019-05-23T06:04:20.936Z,101946.84
2019-05-23T06:07:02.049Z,101949.83
2019-05-23T06:09:31.268Z,101949.83
2019-05-23T06:11:59.091Z,101941.95
2019-05-23T06:14:27.439Z,101951.02
2019-05-23T06:16:56.705Z,101947.32
2019-05-23T06:19:24.777Z,101946.57
2019-05-23T06:21:53.290Z,101944.50
2019-05-23T06:24:39.031Z,101943.11
2019-05-23T06:26:51.899Z,101948.95
2019-05-23T06:29:19.996Z,101947.02
2019-05-23T06:31:48.704Z,101943.86
2019-05-23T06:34:16.409Z,101943.14
2019-05-23T06:36:44.521Z,101946.05
2019-05-23T06:39:12.997Z,101944.55
2019-05-23T06:41:40.916Z,101939.66
2019-05-23T06:44:10.163Z,101944.66
2019-05-23T06:46:38.298Z,101940.77
2019-05-23T06:49:07.265Z,101934.17
2019-05-23T06:51:35.088Z,101932.70
2019-05-23T06:54:03.078Z,101925.77
2019-05-23T06:56:31.180Z,101919.05
2019-05-23T06:59:00.329Z,101931.34
2019-05-23T07:01:31.264Z,101921.43
2019-05-23T07:03:59.788Z,101914.89
2019-05-23T07:06:28.371Z,101911.30
2019-05-23T07:08:56.434Z,101905.06
2019-05-23T07:11:24.688Z,101908.42
2019-05-23T07:13:53.009Z,101907.09
2019-05-23T07:16:20.751Z,101916.47
2019-05-23T07:18:48.775Z,101924.97
2019-05-23T07:21:16.828Z,101916.19
2019-05-23T07:23:44.591Z,101925.63
2019-05-23T07:26:15.028Z,101920.88
2019-05-23T07:28:43.101Z,101919.91
2019-05-23T07:31:11.330Z,101922.16
2019-05-23T07:34:00.276Z,101938.86
2019-05-23T07:36:13.552Z,101926.30
2019-05-23T07:38:41.972Z,101927.69
2019-05-23T07:41:09.974Z,101921.94
2019-05-23T07:43:38.014Z,101925.67
2019-05-23T07:46:06.757Z,101919.49
2019-05-23T07:48:34.699Z,101916.23
2019-05-23T07:51:02.647Z,101916.58
2019-05-23T07:53:47.383Z,101911.20
2019-05-23T07:56:17.014Z,101905.97
2019-05-23T07:58:45.159Z,101906.72
2019-05-23T08:01:15.511Z,101905.98
2019-05-23T08:03:44.980Z,101904.80
2019-05-23T08:06:14.030Z,101898.83
2019-05-23T08:08:42.179Z,101899.97
2019-05-23T08:11:10.196Z,101897.08
2019-05-23T08:13:38.788Z,101892.88
2019-05-23T08:16:06.692Z,101890.80
2019-05-23T08:18:34.951Z,101887.23
2019-05-23T08:21:02.912Z,101892.48
2019-05-23T08:23:32.440Z,101892.25
2019-05-23T08:26:00.687Z,101892.75
2019-05-23T08:28:29.235Z,101887.84
2019-05-23T08:30:58.359Z,101888.55
2019-05-23T08:33:27.366Z,101895.41
2019-05-23T08:35:55.333Z,101886.70
2019-05-23T08:38:23.938Z,101888.32
2019-05-23T08:40:53.245Z,101881.05
2019-05-23T08:43:21.073Z,101886.43
2019-05-23T08:45:49.115Z,101885.31
2019-05-23T08:48:17.186Z,101885.69
2019-05-23T08:50:45.020Z,101885.34
2019-05-23T08:53:12.948Z,101882.06
2019-05-23T08:55:42.799Z,101873.73
2019-05-23T08:58:11.832Z,101877.73
2019-05-23T09:00:41.030Z,101883.44
2019-05-23T09:03:09.551Z,101882.84
2019-05-23T09:05:38.073Z,101867.19
2019-05-23T09:08:08.204Z,101865.00
2019-05-23T09:10:37.280Z,101863.30
2019-05-23T09:13:06.013Z,101866.47
2019-05-23T09:15:33.893Z,101857.93
2019-05-23T09:18:03.175Z,101861.05
2019-05-23T09:20:31.504Z,101864.97
2019-05-23T09:22:59.220Z,101864.77
2019-05-23T09:25:27.097Z,101861.95
2019-05-23T09:27:55.527Z,101873.38
2019-05-23T09:30:25.574Z,101864.72
2019-05-23T09:32:53.424Z,101861.09
2019-05-23T09:35:22.420Z,101863.86
2019-05-23T09:37:50.313Z,101870.73
2019-05-23T09:40:18.022Z,101866.70
2019-05-23T09:42:46.418Z,101859.47
2019-05-23T09:45:16.614Z,101860.39
2019-05-23T09:47:45.534Z,101870.11
2019-05-23T09:50:16.783Z,101858.01
2019-05-23T09:52:44.500Z,101864.15
2019-05-23T09:55:13.203Z,101867.20
2019-05-23T09:57:42.039Z,101873.64
2019-05-23T10:00:13.039Z,101871.34
2019-05-23T10:02:40.858Z,101871.59
2019-05-23T10:05:12.112Z,101869.69
2019-05-23T10:07:39.809Z,101854.30
2019-05-23T10:10:08.661Z,101857.53
2019-05-23T10:12:36.830Z,101854.80
2019-05-23T10:15:09.345Z,101861.41
2019-05-23T10:17:37.190Z,101858.97
2019-05-23T10:20:05.760Z,101865.50
2019-05-23T10:22:33.495Z,101860.47
2019-05-23T10:25:01.332Z,101855.56
2019-05-23T10:27:29.109Z,101846.41
2019-05-23T10:29:57.052Z,101845.86
2019-05-23T10:32:25.494Z,101845.16
2019-05-23T10:34:55.325Z,101844.31
2019-05-23T10:37:23.111Z,101847.69
2019-05-23T10:39:54.152Z,101854.59
2019-05-23T10:42:28.031Z,101844.89
2019-05-23T10:44:56.939Z,101844.59
2019-05-23T10:47:25.262Z,101848.36
2019-05-23T10:49:53.851Z,101847.59
2019-05-23T10:52:21.661Z,101843.20
2019-05-23T10:54:49.416Z,101841.19
2019-05-23T10:57:19.385Z,101844.53
2019-05-23T10:59:47.123Z,101835.59
2019-05-23T11:02:15.086Z,101834.39
2019-05-23T11:04:42.784Z,101835.50
2019-05-23T11:07:11.139Z,101830.13
2019-05-23T11:09:40.278Z,101831.76
2019-05-23T11:12:08.940Z,101829.66
2019-05-23T11:14:37.053Z,101823.49
2019-05-23T11:17:06.186Z,101829.68
2019-05-23T11:19:35.162Z,101817.08
2019-05-23T11:22:05.475Z,101824.52
2019-05-23T11:24:33.638Z,101828.30
2019-05-23T11:27:01.852Z,101832.97
2019-05-23T11:29:29.958Z,101824.55
2019-05-23T11:31:58.174Z,101815.20
2019-05-23T11:34:26.412Z,101814.52
2019-05-23T11:36:54.562Z,101823.16
2019-05-23T11:39:22.578Z,101833.05
2019-05-23T11:41:50.729Z,101812.23
2019-05-23T11:44:18.621Z,101823.14
2019-05-23T11:46:46.759Z,101813.55
2019-05-23T11:49:15.022Z,101809.28
2019-05-23T11:51:43.071Z,101812.85
2019-05-23T11:54:12.962Z,101812.27
2019-05-23T11:56:41.105Z,101815.77
2019-05-23T11:59:09.095Z,101811.05
2019-05-23T12:01:43.577Z,101803.80
2019-05-23T12:04:36.797Z,101802.31
2019-05-23T12:07:24.876Z,101806.81
2019-05-23T12:09:52.910Z,101800.09
2019-05-23T12:12:21.616Z,101794.92
2019-05-23T12:14:49.539Z,101800.25
2019-05-23T12:17:19.618Z,101795.05
2019-05-23T12:19:47.884Z,101803.33
2019-05-23T12:22:15.855Z,101804.30
2019-05-23T12:24:43.725Z,101800.65
2019-05-23T12:27:12.251Z,101797.66
2019-05-23T12:29:41.095Z,101795.81
2019-05-23T12:32:10.746Z,101795.23
2019-05-23T12:34:38.744Z,101798.15
2019-05-23T12:37:19.172Z,101787.88
2019-05-23T12:39:37.940Z,101786.89
2019-05-23T12:42:06.227Z,101782.21
2019-05-23T12:44:34.156Z,101782.39
2019-05-23T12:47:03.920Z,101789.81
2019-05-23T12:49:39.750Z,101779.50
2019-05-23T12:52:09.812Z,101781.06
2019-05-23T12:54:38.256Z,101777.11
2019-05-23T12:57:07.974Z,101774.00
2019-05-23T12:59:37.716Z,101784.65
2019-05-23T13:02:10.170Z,101776.42
2019-05-23T13:04:38.737Z,101776.33
2019-05-23T13:07:07.096Z,101780.06
2019-05-23T13:09:36.679Z,101780.99
2019-05-23T13:12:04.782Z,101776.49
2019-05-23T13:14:33.212Z,101771.91
2019-05-23T13:17:01.922Z,101776.31
2019-05-23T13:19:31.989Z,101771.14
2019-05-23T13:21:59.951Z,101772.16
2019-05-23T13:24:28.921Z,101766.55
2019-05-23T13:26:56.777Z,101777.36
2019-05-23T13:29:25.371Z,101774.09
2019-05-23T13:31:53.141Z,101762.70
2019-05-23T13:34:20.845Z,101768.48
2019-05-23T13:36:50.037Z,101769.05
2019-05-23T13:39:19.722Z,101775.78
2019-05-23T13:41:47.691Z,101770.62
2019-05-23T13:44:31.821Z,101771.56
2019-05-23T13:46:45.938Z,101767.38
2019-05-23T13:49:14.440Z,101769.80
2019-05-23T13:51:42.352Z,101776.10
2019-05-23T13:54:10.432Z,101772.13
2019-05-23T13:56:38.318Z,101766.53
2019-05-23T13:59:06.208Z,101770.74
2019-05-23T14:01:34.173Z,101772.34
2019-05-23T14:04:02.743Z,101773.98
2019-05-23T14:06:30.805Z,101777.83
2019-05-23T14:09:00.132Z,101769.25
2019-05-23T14:11:27.967Z,101770.39
2019-05-23T14:14:01.026Z,101776.68
2019-05-23T14:16:27.604Z,101774.09
2019-05-23T14:18:57.955Z,101767.09
2019-05-23T14:21:28.482Z,101762.35
2019-05-23T14:23:58.237Z,101772.41
2019-05-23T14:26:28.020Z,101768.27
2019-05-23T14:28:56.305Z,101768.06
2019-05-23T14:31:27.735Z,101771.38
2019-05-23T14:34:16.447Z,101764.25
2019-05-23T14:37:10.215Z,101756.69
2019-05-23T14:39:41.680Z,101764.62
2019-05-23T14:42:23.970Z,101759.31
2019-05-23T14:44:53.192Z,101756.89
2019-05-23T14:47:40.051Z,101755.39
2019-05-23T14:50:30.171Z,101768.42
2019-05-23T14:52:59.633Z,101760.75
2019-05-23T14:55:27.655Z,101763.52
2019-05-23T14:57:55.693Z,101758.33
2019-05-23T15:00:25.735Z,101750.81
2019-05-23T15:02:53.737Z,101758.14
2019-05-23T15:05:21.910Z,101755.28
2019-05-23T15:07:50.934Z,101755.59
2019-05-23T15:10:20.213Z,101755.61
2019-05-23T15:12:48.210Z,101753.41
2019-05-23T15:15:16.679Z,101752.00
2019-05-23T15:17:44.412Z,101753.30
2019-05-23T15:20:13.681Z,101749.23
2019-05-23T15:22:41.406Z,101750.70
2019-05-23T15:25:09.362Z,101749.27
2019-05-23T15:27:37.262Z,101742.31
2019-05-23T15:30:05.679Z,101750.95
2019-05-23T15:32:33.938Z,101737.77
2019-05-23T15:35:02.020Z,101744.06
2019-05-23T15:37:29.863Z,101742.64
2019-05-23T15:39:57.583Z,101736.36
2019-05-23T15:42:26.899Z,101745.59
2019-05-23T15:44:54.909Z,101742.41
2019-05-23T15:47:28.088Z,101736.98
2019-05-23T15:49:59.764Z,101746.56
2019-05-23T15:52:43.072Z,101741.79
2019-05-23T15:55:21.319Z,101741.54
2019-05-23T15:58:11.839Z,101744.63
2019-05-23T16:00:48.207Z,101747.11
2019-05-23T16:03:25.959Z,101750.75
2019-05-23T16:05:54.459Z,101747.66
2019-05-23T16:08:22.567Z,101744.73
2019-05-23T16:10:50.514Z,101742.97
2019-05-23T16:13:18.377Z,101740.20
2019-05-23T16:15:46.513Z,101736.39
2019-05-23T16:18:14.569Z,101740.41
2019-05-23T16:20:42.741Z,101732.42
2019-05-23T16:23:10.481Z,101728.15
2019-05-23T16:25:38.228Z,101731.23
2019-05-23T16:28:06.127Z,101737.05
2019-05-23T16:30:34.453Z,101737.10
2019-05-23T16:33:02.202Z,101729.05
2019-05-23T16:35:30.443Z,101731.63
2019-05-23T16:37:59.322Z,101724.75
2019-05-23T16:40:27.301Z,101716.52
2019-05-23T16:42:55.708Z,101720.68
2019-05-23T16:45:23.771Z,101716.66
2019-05-23T16:47:53.308Z,101711.68
2019-05-23T16:50:21.459Z,101708.89
2019-05-23T16:52:49.396Z,101697.97
2019-05-23T16:55:24.074Z,101705.05
2019-05-23T16:57:56.894Z,101702.11
2019-05-23T17:00:42.968Z,101696.11
2019-05-23T17:03:30.854Z,101699.15
2019-05-23T17:06:16.885Z,101693.90
2019-05-23T17:09:02.753Z,101691.58
2019-05-23T17:11:37.939Z,101692.59
2019-05-23T17:14:24.149Z,101689.05
2019-05-23T17:17:05.005Z,101688.27
2019-05-23T17:19:51.887Z,101680.42
2019-05-23T17:22:38.009Z,101684.22
2019-05-23T17:25:25.623Z,101678.60
2019-05-23T17:28:11.918Z,101676.12
2019-05-23T17:30:55.178Z,101668.52
2019-05-23T17:33:23.199Z,101668.33
2019-05-23T17:35:51.325Z,101669.50
2019-05-23T17:38:19.330Z,101659.02
2019-05-23T17:40:47.181Z,101663.52
2019-05-23T17:43:15.125Z,101669.35
2019-05-23T17:45:43.246Z,101678.73
2019-05-23T17:48:11.752Z,101668.83
2019-05-23T17:50:39.979Z,101665.11
2019-05-23T17:53:07.854Z,101668.62
2019-05-23T17:55:37.158Z,101665.33
2019-05-23T17:58:05.504Z,101666.05
2019-05-23T18:00:42.281Z,101661.58
2019-05-23T18:03:11.350Z,101664.09
2019-05-23T18:05:39.737Z,101668.78
2019-05-23T18:08:08.765Z,101664.66
2019-05-23T18:10:44.801Z,101664.86
2019-05-23T18:13:06.885Z,101656.16
2019-05-23T18:15:35.769Z,101657.44
2019-05-23T18:18:04.663Z,101653.09
2019-05-23T18:20:34.378Z,101658.71
2019-05-23T18:23:02.930Z,101660.19
2019-05-23T18:25:31.799Z,101657.09
2019-05-23T18:28:00.063Z,101654.93
2019-05-23T18:30:35.121Z,101657.25
2019-05-23T18:33:04.038Z,101656.28
2019-05-23T18:35:32.665Z,101654.88
2019-05-23T18:38:00.841Z,101656.92
2019-05-23T18:40:29.584Z,101664.97
2019-05-23T18:42:59.081Z,101661.34
2019-05-23T18:45:28.796Z,101657.98
2019-05-23T18:50:59.818Z,101658.27
2019-05-23T18:53:28.081Z,101662.55
2019-05-23T18:56:18.010Z,101657.02
2019-05-23T18:58:45.754Z,101657.88
2019-05-23T19:05:02.134Z,101665.93
2019-05-23T19:07:29.848Z,101664.94
2019-05-23T19:10:01.142Z,101658.73
2019-05-23T19:12:29.262Z,101667.29
2019-05-23T19:14:57.030Z,101667.47
2019-05-23T19:17:25.171Z,101663.19
2019-05-23T19:19:53.005Z,101660.06
2019-05-23T19:22:21.171Z,101662.94
2019-05-23T19:24:48.983Z,101677.63
2019-05-23T19:27:16.742Z,101670.08
2019-05-23T19:29:44.560Z,101669.03
2019-05-23T19:32:13.149Z,101667.98
2019-05-23T19:34:41.008Z,101670.05
2019-05-23T19:37:09.806Z,101670.94
2019-05-23T19:39:38.696Z,101670.96
2019-05-23T19:42:07.028Z,101670.86
2019-05-23T19:44:34.804Z,101671.22
2019-05-23T19:47:02.814Z,101672.69
2019-05-23T19:49:30.653Z,101672.75
2019-05-23T19:51:59.090Z,101670.22
2019-05-23T19:54:27.590Z,101669.09
2019-05-23T19:56:55.294Z,101661.00
2019-05-23T19:59:23.160Z,101665.34
2019-05-23T20:02:04.692Z,101668.21
2019-05-23T20:04:33.571Z,101667.70
2019-05-23T20:07:02.471Z,101664.42
2019-05-23T20:09:30.857Z,101669.39
2019-05-23T20:11:59.299Z,101679.03
2019-05-23T20:14:27.262Z,101675.27
2019-05-23T20:16:55.532Z,101677.91
2019-05-23T20:19:23.351Z,101669.05
2019-05-23T20:21:51.062Z,101676.22
2019-05-23T20:24:18.842Z,101676.66
2019-05-23T20:26:46.573Z,101677.11
2019-05-23T20:29:14.373Z,101672.53
2019-05-23T20:31:42.136Z,101671.40
2019-05-23T20:34:10.557Z,101670.16
2019-05-23T20:36:38.266Z,101663.87
2019-05-23T20:39:06.518Z,101666.98
2019-05-23T20:41:35.407Z,101662.67
2019-05-23T20:44:03.345Z,101661.73
2019-05-23T20:46:31.423Z,101663.28
2019-05-23T20:48:59.130Z,101666.36
2019-05-23T20:51:27.075Z,101669.61
2019-05-23T20:53:54.942Z,101661.63
2019-05-23T20:56:23.222Z,101662.38
2019-05-23T20:58:50.980Z,101669.20
2019-05-23T21:01:26.905Z,101663.17
2019-05-23T21:03:55.846Z,101661.20
2019-05-23T21:06:23.603Z,101664.53
2019-05-23T21:08:51.319Z,101664.56
2019-05-23T21:11:19.163Z,101663.95
2019-05-23T21:13:46.959Z,101668.71
2019-05-23T21:16:14.685Z,101659.77
2019-05-23T21:18:42.508Z,101666.23
2019-05-23T21:21:10.385Z,101662.67
2019-05-23T21:23:38.088Z,101656.42
2019-05-23T21:26:06.125Z,101655.77
2019-05-23T21:28:35.315Z,101654.48
2019-05-23T21:31:06.405Z,101652.28
2019-05-23T21:33:34.203Z,101658.28
2019-05-23T21:36:01.929Z,101651.67
2019-05-23T21:38:29.652Z,101655.75
2019-05-23T21:40:57.370Z,101653.61
2019-05-23T21:43:27.381Z,101658.96
2019-05-23T21:45:55.434Z,101652.39
2019-05-23T21:48:23.165Z,101653.50
2019-05-23T21:50:51.254Z,101654.39
2019-05-23T21:53:19.131Z,101656.92
2019-05-23T21:55:47.072Z,101660.73
2019-05-23T21:58:15.157Z,101667.95
2019-05-23T22:01:30.283Z,101669.09
2019-05-23T22:04:20.902Z,101658.07
2019-05-23T22:07:07.764Z,101659.28
2019-05-23T22:09:35.439Z,101656.85
2019-05-23T22:12:03.596Z,101652.50
2019-05-23T22:14:32.151Z,101656.20
2019-05-23T22:16:59.921Z,101651.84
2019-05-23T22:19:28.385Z,101653.06
2019-05-23T22:21:56.130Z,101655.09
2019-05-23T22:24:24.329Z,101656.41
2019-05-23T22:26:52.055Z,101649.30
2019-05-23T22:29:19.894Z,101643.52
2019-05-23T22:31:47.569Z,101648.47
2019-05-23T22:34:33.993Z,101643.73
2019-05-23T22:37:03.621Z,101650.19
2019-05-23T22:39:31.481Z,101645.38
2019-05-23T22:41:59.288Z,101640.75
2019-05-23T22:44:27.007Z,101641.13
2019-05-23T22:46:55.203Z,101645.94
2019-05-23T22:49:22.923Z,101642.18
2019-05-23T22:51:50.637Z,101648.03
2019-05-23T22:54:18.392Z,101644.06
2019-05-23T22:56:46.162Z,101654.13
2019-05-23T22:59:13.894Z,101646.54
2019-05-23T23:01:41.631Z,101643.72
2019-05-23T23:04:11.230Z,101643.05
2019-05-23T23:06:38.985Z,101646.19
2019-05-23T23:09:07.339Z,101639.23
2019-05-23T23:11:35.029Z,101639.79
2019-05-23T23:14:02.771Z,101641.70
2019-05-23T23:16:30.487Z,101637.18
2019-05-23T23:18:58.230Z,101636.45
2019-05-23T23:21:25.947Z,101629.17
2019-05-23T23:23:53.681Z,101623.25
2019-05-23T23:26:21.377Z,101627.70
2019-05-23T23:28:49.152Z,101619.70
2019-05-23T23:31:16.979Z,101618.40
2019-05-23T23:33:44.671Z,101615.47
2019-05-23T23:36:12.406Z,101604.64
2019-05-23T23:38:40.130Z,101608.05
2019-05-23T23:41:07.935Z,101603.89
2019-05-23T23:43:35.687Z,101607.19
2019-05-23T23:46:21.815Z,101607.70
2019-05-23T23:49:08.303Z,101607.04
2019-05-23T23:51:53.911Z,101603.42
2019-05-23T23:54:39.417Z,101604.75
2019-05-23T23:57:25.505Z,101595.70
2019-05-23T23:59:52.834Z,101606.52
